sensor_id;sensor_type;location;lat;lon;timestamp;pressure;altitude;pressure_sealevel;temperature;humidity
7337;BME280;54510;42.016;23.098;2023-03-22T00:01:55;-21531.66;;;14.46;79.71
7337;BME280;54510;42.016;23.098;2023-03-22T00:04:20;-21531.25;;;14.44;79.55
7337;BME280;54510;42.016;23.098;2023-03-22T00:06:46;-21530.41;;;14.41;79.39
7337;BME280;54510;42.016;23.098;2023-03-22T00:09:11;-21530.13;;;14.40;79.81
7337;BME280;54510;42.016;23.098;2023-03-22T00:11:36;-21532.06;;;14.47;79.60
7337;BME280;54510;42.016;23.098;2023-03-22T00:14:02;-21532.63;;;14.49;79.73
7337;BME280;54510;42.016;23.098;2023-03-22T00:16:27;-21532.34;;;14.48;79.82
7337;BME280;54510;42.016;23.098;2023-03-22T00:18:52;-21532.06;;;14.47;79.88
7337;BME280;54510;42.016;23.098;2023-03-22T00:21:17;-21534.56;;;14.56;80.10
7337;BME280;54510;42.016;23.098;2023-03-22T00:23:43;-21533.88;;;14.54;79.83
7337;BME280;54510;42.016;23.098;2023-03-22T00:26:09;-21535.66;;;14.60;79.51
7337;BME280;54510;42.016;23.098;2023-03-22T00:28:35;-21537.72;;;14.68;79.05
7337;BME280;54510;42.016;23.098;2023-03-22T00:31:01;-21538.56;;;14.71;78.92
7337;BME280;54510;42.016;23.098;2023-03-22T00:33:27;-21535.94;;;14.61;79.19
7337;BME280;54510;42.016;23.098;2023-03-22T00:35:53;-21532.47;;;14.49;79.14
7337;BME280;54510;42.016;23.098;2023-03-22T00:38:18;-21533.72;;;14.53;78.99
7337;BME280;54510;42.016;23.098;2023-03-22T00:40:44;-21533.88;;;14.54;79.07
7337;BME280;54510;42.016;23.098;2023-03-22T00:43:10;-21533.44;;;14.52;79.15
7337;BME280;54510;42.016;23.098;2023-03-22T00:45:35;-21535.66;;;14.60;79.07
7337;BME280;54510;42.016;23.098;2023-03-22T00:48:02;-21531.94;;;14.47;78.98
7337;BME280;54510;42.016;23.098;2023-03-22T00:50:27;-21529.84;;;14.39;79.58
7337;BME280;54510;42.016;23.098;2023-03-22T00:52:52;-21531.09;;;14.44;79.51
7337;BME280;54510;42.016;23.098;2023-03-22T00:55:17;-21527.66;;;14.31;79.68
7337;BME280;54510;42.016;23.098;2023-03-22T00:57:43;-21526.13;;;14.26;80.54
7337;BME280;54510;42.016;23.098;2023-03-22T01:00:10;-21527.09;;;14.29;81.19
7337;BME280;54510;42.016;23.098;2023-03-22T01:02:40;-21529.03;;;14.36;81.14
7337;BME280;54510;42.016;23.098;2023-03-22T01:05:05;-21529.31;;;14.37;80.86
7337;BME280;54510;42.016;23.098;2023-03-22T01:07:31;-21525.44;;;14.23;80.04
7337;BME280;54510;42.016;23.098;2023-03-22T01:09:57;-21524.31;;;14.19;80.09
7337;BME280;54510;42.016;23.098;2023-03-22T01:12:22;-21528.59;;;14.35;79.30
7337;BME280;54510;42.016;23.098;2023-03-22T01:14:47;-21530.28;;;14.41;79.07
7337;BME280;54510;42.016;23.098;2023-03-22T01:17:13;-21525.84;;;14.24;78.83
7337;BME280;54510;42.016;23.098;2023-03-22T01:19:38;-21521.97;;;14.10;79.15
7337;BME280;54510;42.016;23.098;2023-03-22T01:22:04;-21514.66;;;13.83;80.28
7337;BME280;54510;42.016;23.098;2023-03-22T01:24:30;-21520.72;;;14.06;80.03
7337;BME280;54510;42.016;23.098;2023-03-22T01:26:55;-21520.59;;;14.05;80.03
7337;BME280;54510;42.016;23.098;2023-03-22T01:29:21;-21524.19;;;14.18;79.61
7337;BME280;54510;42.016;23.098;2023-03-22T01:31:46;-21514.78;;;13.84;80.61
7337;BME280;54510;42.016;23.098;2023-03-22T01:34:11;-21519.34;;;14.01;79.90
7337;BME280;54510;42.016;23.098;2023-03-22T01:36:36;-21524.47;;;14.19;80.29
7337;BME280;54510;42.016;23.098;2023-03-22T01:39:02;-21526.53;;;14.27;80.25
7337;BME280;54510;42.016;23.098;2023-03-22T01:41:28;-21524.31;;;14.19;80.91
7337;BME280;54510;42.016;23.098;2023-03-22T01:46:31;-21524.88;;;14.21;81.34
7337;BME280;54510;42.016;23.098;2023-03-22T01:48:57;-21523.78;;;14.17;81.71
7337;BME280;54510;42.016;23.098;2023-03-22T01:51:24;-21524.88;;;14.21;81.32
7337;BME280;54510;42.016;23.098;2023-03-22T01:53:53;-21527.91;;;14.32;81.60
7337;BME280;54510;42.016;23.098;2023-03-22T01:56:21;-21529.44;;;14.38;80.68
7337;BME280;54510;42.016;23.098;2023-03-22T01:58:47;-21524.75;;;14.20;80.72
7337;BME280;54510;42.016;23.098;2023-03-22T02:01:13;-21523.50;;;14.16;81.16
7337;BME280;54510;42.016;23.098;2023-03-22T02:06:04;-21523.50;;;14.16;80.53
7337;BME280;54510;42.016;23.098;2023-03-22T02:08:30;-21514.09;;;13.81;80.74
7337;BME280;54510;42.016;23.098;2023-03-22T02:10:56;-21507.47;;;13.57;81.16
7337;BME280;54510;42.016;23.098;2023-03-22T02:23:40;-21513.69;;;13.80;78.96
7337;BME280;54510;42.016;23.098;2023-03-22T02:28:48;-21517.97;;;13.96;78.61
7337;BME280;54510;42.016;23.098;2023-03-22T02:36:32;-21496.81;;;13.18;80.11
7337;BME280;54510;42.016;23.098;2023-03-22T02:44:21;-21489.19;;;12.90;81.19
7337;BME280;54510;42.016;23.098;2023-03-22T02:51:57;-21486.69;;;12.81;80.87
7337;BME280;54510;42.016;23.098;2023-03-22T02:54:43;-21485.31;;;12.76;80.83
7337;BME280;54510;42.016;23.098;2023-03-22T02:57:21;-21488.34;;;12.87;79.51
7337;BME280;54510;42.016;23.098;2023-03-22T02:59:49;-21482.28;;;12.65;80.22
7337;BME280;54510;42.016;23.098;2023-03-22T03:02:17;-21483.09;;;12.68;79.60
7337;BME280;54510;42.016;23.098;2023-03-22T03:04:44;-21486.41;;;12.80;79.31
7337;BME280;54510;42.016;23.098;2023-03-22T03:07:11;-21492.78;;;13.03;77.90
7337;BME280;54510;42.016;23.098;2023-03-22T03:09:38;-21489.75;;;12.92;78.53
7337;BME280;54510;42.016;23.098;2023-03-22T03:12:08;-21488.22;;;12.87;78.55
7337;BME280;54510;42.016;23.098;2023-03-22T03:14:33;-21489.06;;;12.90;78.14
7337;BME280;54510;42.016;23.098;2023-03-22T03:17:08;-21486.16;;;12.79;78.29
7337;BME280;54510;42.016;23.098;2023-03-22T03:25:00;-21474.22;;;12.36;79.23
7337;BME280;54510;42.016;23.098;2023-03-22T03:27:31;-21471.19;;;12.24;79.24
7337;BME280;54510;42.016;23.098;2023-03-22T03:30:18;-21470.50;;;12.22;79.58
7337;BME280;54510;42.016;23.098;2023-03-22T03:32:52;-21476.16;;;12.43;78.81
7337;BME280;54510;42.016;23.098;2023-03-22T03:35:21;-21481.16;;;12.61;77.97
7337;BME280;54510;42.016;23.098;2023-03-22T03:37:48;-21473.97;;;12.35;78.55
7337;BME280;54510;42.016;23.098;2023-03-22T03:40:17;-21474.38;;;12.36;78.54
7337;BME280;54510;42.016;23.098;2023-03-22T03:42:49;-21472.03;;;12.27;79.34
7337;BME280;54510;42.016;23.098;2023-03-22T03:45:16;-21479.78;;;12.56;78.61
7337;BME280;54510;42.016;23.098;2023-03-22T03:47:43;-21483.25;;;12.69;77.65
7337;BME280;54510;42.016;23.098;2023-03-22T03:50:10;-21492.50;;;13.02;76.83
7337;BME280;54510;42.016;23.098;2023-03-22T03:52:37;-21480.31;;;12.58;77.86
7337;BME280;54510;42.016;23.098;2023-03-22T03:55:02;-21486.16;;;12.79;77.69
7337;BME280;54510;42.016;23.098;2023-03-22T03:57:28;-21481.72;;;12.63;77.49
7337;BME280;54510;42.016;23.098;2023-03-22T03:59:53;-21481.16;;;12.61;77.67
7337;BME280;54510;42.016;23.098;2023-03-22T04:02:18;-21486.16;;;12.79;76.82
7337;BME280;54510;42.016;23.098;2023-03-22T04:04:43;-21493.75;;;13.07;75.89
7337;BME280;54510;42.016;23.098;2023-03-22T04:07:09;-21479.91;;;12.56;77.27
7337;BME280;54510;42.016;23.098;2023-03-22T04:09:35;-21492.50;;;13.02;76.00
7337;BME280;54510;42.016;23.098;2023-03-22T04:12:01;-21495.84;;;13.15;75.49
7337;BME280;54510;42.016;23.098;2023-03-22T04:14:26;-21499.56;;;13.28;75.63
7337;BME280;54510;42.016;23.098;2023-03-22T04:16:52;-21501.22;;;13.34;75.62
7337;BME280;54510;42.016;23.098;2023-03-22T04:19:18;-21497.63;;;13.21;75.02
7337;BME280;54510;42.016;23.098;2023-03-22T04:21:43;-21499.84;;;13.29;74.81
7337;BME280;54510;42.016;23.098;2023-03-22T04:24:09;-21489.47;;;12.91;75.74
7337;BME280;54510;42.016;23.098;2023-03-22T04:26:35;-21498.59;;;13.25;75.42
7337;BME280;54510;42.016;23.098;2023-03-22T04:29:00;-21501.94;;;13.37;74.31
7337;BME280;54510;42.016;23.098;2023-03-22T04:31:27;-21502.06;;;13.37;74.43
7337;BME280;54510;42.016;23.098;2023-03-22T04:33:52;-21495.56;;;13.14;75.03
7337;BME280;54510;42.016;23.098;2023-03-22T04:36:21;-21494.59;;;13.10;75.00
7337;BME280;54510;42.016;23.098;2023-03-22T04:38:47;-21489.75;;;12.92;75.26
7337;BME280;54510;42.016;23.098;2023-03-22T04:41:12;-21489.75;;;12.92;75.55
7337;BME280;54510;42.016;23.098;2023-03-22T04:43:38;-21497.63;;;13.21;74.91
7337;BME280;54510;42.016;23.098;2023-03-22T04:46:06;-21498.75;;;13.25;74.39
7337;BME280;54510;42.016;23.098;2023-03-22T04:48:37;-21493.75;;;13.07;74.68
7337;BME280;54510;42.016;23.098;2023-03-22T04:51:04;-21482.00;;;12.64;75.96
7337;BME280;54510;42.016;23.098;2023-03-22T04:53:29;-21488.09;;;12.86;76.12
7337;BME280;54510;42.016;23.098;2023-03-22T04:55:55;-21492.50;;;13.02;75.45
7337;BME280;54510;42.016;23.098;2023-03-22T04:58:23;-21476.16;;;12.43;77.37
7337;BME280;54510;42.016;23.098;2023-03-22T05:00:50;-21488.63;;;12.88;76.74
7337;BME280;54510;42.016;23.098;2023-03-22T05:03:17;-21486.56;;;12.81;76.34
7337;BME280;54510;42.016;23.098;2023-03-22T05:05:53;-21486.69;;;12.81;75.87
7337;BME280;54510;42.016;23.098;2023-03-22T05:08:19;-21466.06;;;12.06;78.45
7337;BME280;54510;42.016;23.098;2023-03-22T05:10:45;-21480.19;;;12.57;77.08
7337;BME280;54510;42.016;23.098;2023-03-22T05:13:10;-21489.19;;;12.90;76.19
7337;BME280;54510;42.016;23.098;2023-03-22T05:15:37;-21490.72;;;12.96;75.72
7337;BME280;54510;42.016;23.098;2023-03-22T05:18:03;-21484.47;;;12.73;76.29
7337;BME280;54510;42.016;23.098;2023-03-22T05:20:28;-21492.38;;;13.02;75.35
7337;BME280;54510;42.016;23.098;2023-03-22T05:22:53;-21491.97;;;13.00;75.67
7337;BME280;54510;42.016;23.098;2023-03-22T05:25:21;-21496.25;;;13.16;75.04
7337;BME280;54510;42.016;23.098;2023-03-22T05:27:46;-21493.19;;;13.05;74.81
7337;BME280;54510;42.016;23.098;2023-03-22T05:30:14;-21488.22;;;12.87;75.74
7337;BME280;54510;42.016;23.098;2023-03-22T05:32:40;-21488.63;;;12.88;75.58
7337;BME280;54510;42.016;23.098;2023-03-22T05:35:07;-21482.41;;;12.65;76.38
7337;BME280;54510;42.016;23.098;2023-03-22T05:37:33;-21484.47;;;12.73;76.56
7337;BME280;54510;42.016;23.098;2023-03-22T05:39:58;-21491.25;;;12.98;76.05
7337;BME280;54510;42.016;23.098;2023-03-22T05:42:23;-21498.59;;;13.25;74.38
7337;BME280;54510;42.016;23.098;2023-03-22T05:44:49;-21486.28;;;12.80;74.68
7337;BME280;54510;42.016;23.098;2023-03-22T05:47:15;-21482.13;;;12.64;75.29
7337;BME280;54510;42.016;23.098;2023-03-22T05:49:40;-21491.13;;;12.97;74.74
7337;BME280;54510;42.016;23.098;2023-03-22T05:52:06;-21506.06;;;13.52;73.45
7337;BME280;54510;42.016;23.098;2023-03-22T05:54:31;-21513.25;;;13.78;72.64
7337;BME280;54510;42.016;23.098;2023-03-22T05:56:56;-21505.25;;;13.49;72.10
7337;BME280;54510;42.016;23.098;2023-03-22T05:59:22;-21501.78;;;13.36;72.87
7337;BME280;54510;42.016;23.098;2023-03-22T06:01:47;-21501.66;;;13.36;72.67
7337;BME280;54510;42.016;23.098;2023-03-22T06:04:12;-21511.59;;;13.72;72.04
7337;BME280;54510;42.016;23.098;2023-03-22T06:06:37;-21510.91;;;13.70;71.43
7337;BME280;54510;42.016;23.098;2023-03-22T06:09:03;-21515.75;;;13.88;71.21
7337;BME280;54510;42.016;23.098;2023-03-22T06:11:28;-21514.78;;;13.84;70.28
7337;BME280;54510;42.016;23.098;2023-03-22T06:13:57;-21521.41;;;14.08;70.45
7337;BME280;54510;42.016;23.098;2023-03-22T06:16:23;-21519.91;;;14.03;70.24
7337;BME280;54510;42.016;23.098;2023-03-22T06:18:48;-21521.00;;;14.07;69.76
7337;BME280;54510;42.016;23.098;2023-03-22T06:21:13;-21498.75;;;13.25;72.58
7337;BME280;54510;42.016;23.098;2023-03-22T06:23:39;-21507.88;;;13.59;71.79
7337;BME280;54510;42.016;23.098;2023-03-22T06:26:04;-21521.16;;;14.07;70.45
7337;BME280;54510;42.016;23.098;2023-03-22T06:28:29;-21516.03;;;13.89;70.89
7337;BME280;54510;42.016;23.098;2023-03-22T06:30:55;-21512.84;;;13.77;71.02
7337;BME280;54510;42.016;23.098;2023-03-22T06:33:20;-21519.50;;;14.01;70.34
7337;BME280;54510;42.016;23.098;2023-03-22T06:35:45;-21519.34;;;14.01;70.20
7337;BME280;54510;42.016;23.098;2023-03-22T06:38:11;-21513.97;;;13.81;69.91
7337;BME280;54510;42.016;23.098;2023-03-22T06:40:36;-21520.19;;;14.04;70.33
7337;BME280;54510;42.016;23.098;2023-03-22T06:43:02;-21532.34;;;14.48;69.10
7337;BME280;54510;42.016;23.098;2023-03-22T06:45:28;-21526.53;;;14.27;69.01
7337;BME280;54510;42.016;23.098;2023-03-22T06:47:57;-21539.25;;;14.74;68.27
7337;BME280;54510;42.016;23.098;2023-03-22T06:50:22;-21513.97;;;13.81;70.63
7337;BME280;54510;42.016;23.098;2023-03-22T06:52:47;-21532.06;;;14.47;69.21
7337;BME280;54510;42.016;23.098;2023-03-22T06:55:13;-21521.00;;;14.07;69.16
7337;BME280;54510;42.016;23.098;2023-03-22T06:57:38;-21529.31;;;14.37;68.78
7337;BME280;54510;42.016;23.098;2023-03-22T07:00:03;-21516.31;;;13.90;69.51
7337;BME280;54510;42.016;23.098;2023-03-22T07:02:29;-21516.44;;;13.90;68.57
7337;BME280;54510;42.016;23.098;2023-03-22T07:04:54;-21531.09;;;14.44;67.92
7337;BME280;54510;42.016;23.098;2023-03-22T07:07:20;-21539.25;;;14.74;66.92
7337;BME280;54510;42.016;23.098;2023-03-22T07:09:45;-21553.06;;;15.24;65.55
7337;BME280;54510;42.016;23.098;2023-03-22T07:12:11;-21535.38;;;14.59;64.91
7337;BME280;54510;42.016;23.098;2023-03-22T07:14:36;-21535.94;;;14.61;65.74
7337;BME280;54510;42.016;23.098;2023-03-22T07:17:02;-21522.41;;;14.12;66.64
7337;BME280;54510;42.016;23.098;2023-03-22T07:19:27;-21532.06;;;14.47;66.78
7337;BME280;54510;42.016;23.098;2023-03-22T07:21:52;-21536.91;;;14.65;66.66
7337;BME280;54510;42.016;23.098;2023-03-22T07:24:18;-21547.25;;;15.03;65.40
7337;BME280;54510;42.016;23.098;2023-03-22T07:26:43;-21547.81;;;15.05;65.02
7337;BME280;54510;42.016;23.098;2023-03-22T07:29:08;-21547.13;;;15.02;63.90
7337;BME280;54510;42.016;23.098;2023-03-22T07:31:33;-21527.66;;;14.31;66.33
7337;BME280;54510;42.016;23.098;2023-03-22T07:34:03;-21540.91;;;14.80;64.66
7337;BME280;54510;42.016;23.098;2023-03-22T07:36:29;-21552.50;;;15.22;63.57
7337;BME280;54510;42.016;23.098;2023-03-22T07:38:55;-21550.84;;;15.16;63.41
7337;BME280;54510;42.016;23.098;2023-03-22T07:41:20;-21527.66;;;14.31;65.83
7337;BME280;54510;42.016;23.098;2023-03-22T07:43:48;-21524.75;;;14.20;67.12
7337;BME280;54510;42.016;23.098;2023-03-22T07:46:13;-21546.72;;;15.01;65.38
7337;BME280;54510;42.016;23.098;2023-03-22T07:48:38;-21542.56;;;14.86;64.08
7337;BME280;54510;42.016;23.098;2023-03-22T07:51:04;-21538.28;;;14.70;65.24
7337;BME280;54510;42.016;23.098;2023-03-22T07:53:30;-21535.78;;;14.61;65.62
7337;BME280;54510;42.016;23.098;2023-03-22T07:55:55;-21539.94;;;14.76;65.57
7337;BME280;54510;42.016;23.098;2023-03-22T07:58:20;-21544.91;;;14.94;65.59
7337;BME280;54510;42.016;23.098;2023-03-22T08:00:45;-21552.22;;;15.21;64.55
7337;BME280;54510;42.016;23.098;2023-03-22T08:03:13;-21551.81;;;15.20;64.20
7337;BME280;54510;42.016;23.098;2023-03-22T08:05:40;-21559.41;;;15.48;63.70
7337;BME280;54510;42.016;23.098;2023-03-22T08:08:05;-21555.53;;;15.33;63.10
7337;BME280;54510;42.016;23.098;2023-03-22T08:10:30;-21553.88;;;15.27;64.08
7337;BME280;54510;42.016;23.098;2023-03-22T08:12:56;-21543.13;;;14.88;64.50
7337;BME280;54510;42.016;23.098;2023-03-22T08:15:22;-21552.78;;;15.23;64.40
7337;BME280;54510;42.016;23.098;2023-03-22T08:17:48;-21561.06;;;15.54;62.99
7337;BME280;54510;42.016;23.098;2023-03-22T08:20:13;-21576.50;;;16.10;61.93
7337;BME280;54510;42.016;23.098;2023-03-22T08:22:39;-21571.81;;;15.93;61.14
7337;BME280;54510;42.016;23.098;2023-03-22T08:25:04;-21575.81;;;16.08;60.55
7337;BME280;54510;42.016;23.098;2023-03-22T08:27:30;-21581.88;;;16.30;60.31
7337;BME280;54510;42.016;23.098;2023-03-22T08:29:55;-21585.47;;;16.43;60.71
7337;BME280;54510;42.016;23.098;2023-03-22T08:32:22;-21583.81;;;16.37;61.38
7337;BME280;54510;42.016;23.098;2023-03-22T08:34:47;-21579.13;;;16.20;60.51
7337;BME280;54510;42.016;23.098;2023-03-22T08:37:12;-21570.16;;;15.87;62.27
7337;BME280;54510;42.016;23.098;2023-03-22T08:39:38;-21569.88;;;15.86;62.33
7337;BME280;54510;42.016;23.098;2023-03-22T08:42:03;-21568.78;;;15.82;62.54
7337;BME280;54510;42.016;23.098;2023-03-22T08:44:29;-21575.00;;;16.05;62.19
7337;BME280;54510;42.016;23.098;2023-03-22T08:46:55;-21579.81;;;16.23;61.82
7337;BME280;54510;42.016;23.098;2023-03-22T08:49:20;-21581.75;;;16.30;62.29
7337;BME280;54510;42.016;23.098;2023-03-22T08:51:46;-21578.72;;;16.18;62.07
7337;BME280;54510;42.016;23.098;2023-03-22T08:54:11;-21567.81;;;15.78;63.13
7337;BME280;54510;42.016;23.098;2023-03-22T08:56:36;-21562.44;;;15.59;63.16
7337;BME280;54510;42.016;23.098;2023-03-22T08:59:06;-21568.38;;;15.80;63.74
7337;BME280;54510;42.016;23.098;2023-03-22T09:01:32;-21583.53;;;16.36;61.88
7337;BME280;54510;42.016;23.098;2023-03-22T09:03:57;-21581.47;;;16.29;61.27
7337;BME280;54510;42.016;23.098;2023-03-22T09:06:23;-21584.66;;;16.40;60.25
7337;BME280;54510;42.016;23.098;2023-03-22T09:08:50;-21584.22;;;16.39;58.07
7337;BME280;54510;42.016;23.098;2023-03-22T09:11:16;-21580.66;;;16.26;59.13
7337;BME280;54510;42.016;23.098;2023-03-22T09:13:41;-21592.78;;;16.70;57.32
7337;BME280;54510;42.016;23.098;2023-03-22T09:16:06;-21595.66;;;16.81;57.71
7337;BME280;54510;42.016;23.098;2023-03-22T09:18:33;-21596.63;;;16.84;56.77
7337;BME280;54510;42.016;23.098;2023-03-22T09:20:58;-21596.09;;;16.82;56.62
7337;BME280;54510;42.016;23.098;2023-03-22T09:23:23;-21596.34;;;16.83;56.46
7337;BME280;54510;42.016;23.098;2023-03-22T09:25:49;-21583.00;;;16.34;57.31
7337;BME280;54510;42.016;23.098;2023-03-22T09:28:15;-21585.75;;;16.44;57.08
7337;BME280;54510;42.016;23.098;2023-03-22T09:30:41;-21583.94;;;16.38;57.25
7337;BME280;54510;42.016;23.098;2023-03-22T09:33:06;-21577.34;;;16.13;58.17
7337;BME280;54510;42.016;23.098;2023-03-22T09:35:32;-21561.34;;;15.55;60.06
7337;BME280;54510;42.016;23.098;2023-03-22T09:37:57;-21582.28;;;16.32;58.00
7337;BME280;54510;42.016;23.098;2023-03-22T09:40:30;-21599.09;;;16.93;57.13
7337;BME280;54510;42.016;23.098;2023-03-22T09:42:58;-21592.09;;;16.68;56.83
7337;BME280;54510;42.016;23.098;2023-03-22T09:45:25;-21593.06;;;16.71;57.39
7337;BME280;54510;42.016;23.098;2023-03-22T09:47:56;-21580.91;;;16.27;56.65
7337;BME280;54510;42.016;23.098;2023-03-22T09:50:29;-21580.38;;;16.25;57.32
7337;BME280;54510;42.016;23.098;2023-03-22T09:52:55;-21582.16;;;16.31;57.06
7337;BME280;54510;42.016;23.098;2023-03-22T09:57:56;-21582.03;;;16.31;56.58
7337;BME280;54510;42.016;23.098;2023-03-22T10:00:39;-21586.16;;;16.46;56.21
7337;BME280;54510;42.016;23.098;2023-03-22T10:03:13;-21594.16;;;16.75;55.88
7337;BME280;54510;42.016;23.098;2023-03-22T10:10:43;-21584.50;;;16.40;55.22
7337;BME280;54510;42.016;23.098;2023-03-22T10:13:52;-21593.75;;;16.74;54.84
7337;BME280;54510;42.016;23.098;2023-03-22T10:15:58;-21605.03;;;17.15;53.66
7337;BME280;54510;42.016;23.098;2023-03-22T10:18:29;-21586.84;;;16.48;55.20
7337;BME280;54510;42.016;23.098;2023-03-22T10:20:59;-21601.31;;;17.02;53.73
7337;BME280;54510;42.016;23.098;2023-03-22T10:23:30;-21586.28;;;16.46;55.76
7337;BME280;54510;42.016;23.098;2023-03-22T10:25:58;-21590.03;;;16.60;55.08
7337;BME280;54510;42.016;23.098;2023-03-22T10:28:38;-21595.53;;;16.80;54.27
7337;BME280;54510;42.016;23.098;2023-03-22T10:31:04;-21613.97;;;17.48;52.95
7337;BME280;54510;42.016;23.098;2023-03-22T10:33:39;-21618.94;;;17.66;53.03
7337;BME280;54510;42.016;23.098;2023-03-22T10:36:14;-21609.16;;;17.30;52.74
7337;BME280;54510;42.016;23.098;2023-03-22T10:38:51;-21597.31;;;16.87;53.67
7337;BME280;54510;42.016;23.098;2023-03-22T10:41:19;-21616.31;;;17.57;52.90
7337;BME280;54510;42.016;23.098;2023-03-22T10:43:55;-21627.75;;;17.99;52.25
7337;BME280;54510;42.016;23.098;2023-03-22T10:46:23;-21608.19;;;17.27;53.94
7337;BME280;54510;42.016;23.098;2023-03-22T10:48:50;-21623.06;;;17.82;53.50
7337;BME280;54510;42.016;23.098;2023-03-22T10:51:25;-21602.00;;;17.04;54.32
7337;BME280;54510;42.016;23.098;2023-03-22T10:53:52;-21613.16;;;17.45;53.62
7337;BME280;54510;42.016;23.098;2023-03-22T10:56:19;-21609.44;;;17.31;52.82
7337;BME280;54510;42.016;23.098;2023-03-22T10:58:45;-21612.06;;;17.41;52.61
7337;BME280;54510;42.016;23.098;2023-03-22T11:01:11;-21603.78;;;17.11;53.53
7337;BME280;54510;42.016;23.098;2023-03-22T11:03:41;-21588.38;;;16.54;54.27
7337;BME280;54510;42.016;23.098;2023-03-22T11:06:10;-21595.81;;;16.81;54.14
7337;BME280;54510;42.016;23.098;2023-03-22T11:11:05;-21597.19;;;16.86;54.38
7337;BME280;54510;42.016;23.098;2023-03-22T11:13:31;-21611.63;;;17.40;52.96
7337;BME280;54510;42.016;23.098;2023-03-22T11:15:58;-21596.91;;;16.85;52.85
7337;BME280;54510;42.016;23.098;2023-03-22T11:18:28;-21595.13;;;16.79;53.34
7337;BME280;54510;42.016;23.098;2023-03-22T11:23:31;-21604.63;;;17.14;51.55
7337;BME280;54510;42.016;23.098;2023-03-22T11:25:57;-21614.53;;;17.50;50.86
7337;BME280;54510;42.016;23.098;2023-03-22T11:28:27;-21613.84;;;17.48;50.61
7337;BME280;54510;42.016;23.098;2023-03-22T11:33:22;-21604.63;;;17.14;51.58
7337;BME280;54510;42.016;23.098;2023-03-22T11:35:54;-21601.72;;;17.03;51.91
7337;BME280;54510;42.016;23.098;2023-03-22T11:38:35;-21609.44;;;17.31;50.67
7337;BME280;54510;42.016;23.098;2023-03-22T11:41:02;-21605.44;;;17.17;52.16
7337;BME280;54510;42.016;23.098;2023-03-22T11:43:33;-21608.88;;;17.29;51.06
7337;BME280;54510;42.016;23.098;2023-03-22T11:45:59;-21606.81;;;17.22;51.43
7337;BME280;54510;42.016;23.098;2023-03-22T11:48:28;-21612.59;;;17.43;51.83
7337;BME280;54510;42.016;23.098;2023-03-22T11:51:02;-21603.78;;;17.11;51.79
7337;BME280;54510;42.016;23.098;2023-03-22T11:53:28;-21597.03;;;16.86;52.41
7337;BME280;54510;42.016;23.098;2023-03-22T11:55:57;-21610.69;;;17.36;51.84
7337;BME280;54510;42.016;23.098;2023-03-22T12:00:52;-21615.91;;;17.55;51.03
7337;BME280;54510;42.016;23.098;2023-03-22T12:03:19;-21613.28;;;17.46;50.84
7337;BME280;54510;42.016;23.098;2023-03-22T12:05:46;-21615.91;;;17.55;50.89
7337;BME280;54510;42.016;23.098;2023-03-22T12:08:18;-21618.38;;;17.64;49.21
7337;BME280;54510;42.016;23.098;2023-03-22T12:10:49;-21624.56;;;17.87;49.32
7337;BME280;54510;42.016;23.098;2023-03-22T12:15:51;-21621.13;;;17.74;49.24
7337;BME280;54510;42.016;23.098;2023-03-22T12:18:18;-21626.50;;;17.94;48.90
7337;BME280;54510;42.016;23.098;2023-03-22T12:20:59;-21637.91;;;18.36;48.40
7337;BME280;54510;42.016;23.098;2023-03-22T12:23:28;-21636.25;;;18.30;48.18
7337;BME280;54510;42.016;23.098;2023-03-22T12:25:59;-21628.16;;;18.00;48.83
7337;BME280;54510;42.016;23.098;2023-03-22T12:28:31;-21635.84;;;18.29;48.59
7337;BME280;54510;42.016;23.098;2023-03-22T12:30:57;-21634.63;;;18.24;48.65
7337;BME280;54510;42.016;23.098;2023-03-22T12:33:27;-21623.34;;;17.83;48.73
7337;BME280;54510;42.016;23.098;2023-03-22T12:36:02;-21643.28;;;18.56;47.86
7337;BME280;54510;42.016;23.098;2023-03-22T12:40:56;-21638.59;;;18.39;48.24
7337;BME280;54510;42.016;23.098;2023-03-22T12:46:12;-21609.72;;;17.32;51.44
7337;BME280;54510;42.016;23.098;2023-03-22T12:48:42;-21619.91;;;17.70;51.05
7337;BME280;54510;42.016;23.098;2023-03-22T12:51:10;-21621.41;;;17.75;49.95
7337;BME280;54510;42.016;23.098;2023-03-22T12:53:40;-21609.72;;;17.32;51.07
7337;BME280;54510;42.016;23.098;2023-03-22T12:56:20;-21613.69;;;17.47;50.83
7337;BME280;54510;42.016;23.098;2023-03-22T12:58:48;-21618.94;;;17.66;49.60
7337;BME280;54510;42.016;23.098;2023-03-22T13:03:45;-21630.91;;;18.10;48.75
7337;BME280;54510;42.016;23.098;2023-03-22T13:11:43;-21625.25;;;17.90;50.51
7337;BME280;54510;42.016;23.098;2023-03-22T13:16:58;-21608.47;;;17.28;51.84
7337;BME280;54510;42.016;23.098;2023-03-22T13:19:33;-21617.97;;;17.63;51.34
7337;BME280;54510;42.016;23.098;2023-03-22T13:22:12;-21633.50;;;18.20;50.42
7337;BME280;54510;42.016;23.098;2023-03-22T13:27:22;-21634.75;;;18.25;49.81
7337;BME280;54510;42.016;23.098;2023-03-22T13:29:48;-21624.03;;;17.85;50.12
7337;BME280;54510;42.016;23.098;2023-03-22T13:32:28;-21632.97;;;18.18;48.31
7337;BME280;54510;42.016;23.098;2023-03-22T13:34:53;-21626.09;;;17.93;50.09
7337;BME280;54510;42.016;23.098;2023-03-22T13:40:25;-21655.38;;;19.01;47.73
7337;BME280;54510;42.016;23.098;2023-03-22T13:42:51;-21650.00;;;18.81;48.45
7337;BME280;54510;42.016;23.098;2023-03-22T13:45:27;-21632.13;;;18.15;48.65
7337;BME280;54510;42.016;23.098;2023-03-22T13:48:11;-21626.09;;;17.93;49.48
7337;BME280;54510;42.016;23.098;2023-03-22T13:50:51;-21646.72;;;18.69;47.83
7337;BME280;54510;42.016;23.098;2023-03-22T13:53:18;-21629.94;;;18.07;49.27
7337;BME280;54510;42.016;23.098;2023-03-22T13:55:57;-21613.97;;;17.48;51.22
7337;BME280;54510;42.016;23.098;2023-03-22T14:01:26;-21621.13;;;17.74;50.26
7337;BME280;54510;42.016;23.098;2023-03-22T14:03:52;-21614.81;;;17.51;50.75
7337;BME280;54510;42.016;23.098;2023-03-22T14:08:46;-21622.94;;;17.81;50.12
7337;BME280;54510;42.016;23.098;2023-03-22T14:13:46;-21613.97;;;17.48;49.61
7337;BME280;54510;42.016;23.098;2023-03-22T14:18:57;-21612.19;;;17.42;50.71
7337;BME280;54510;42.016;23.098;2023-03-22T14:21:29;-21638.75;;;18.39;49.16
7337;BME280;54510;42.016;23.098;2023-03-22T14:23:55;-21630.34;;;18.08;48.28